createdAt,value
2022-08-31T00:00:21.105Z,7.47
2022-08-31T00:03:06.360Z,6.72
2022-08-31T00:05:33.175Z,6.90
2022-08-31T00:07:59.965Z,4.78
2022-08-31T00:10:31.942Z,7.97
2022-08-31T00:13:04.384Z,6.63
2022-08-31T00:15:31.185Z,5.28
2022-08-31T00:17:59.257Z,7.55
2022-08-31T00:20:33.556Z,7.10
2022-08-31T00:23:06.351Z,9.02
2022-08-31T00:25:34.316Z,6.93
2022-08-31T00:28:01.799Z,5.55
2022-08-31T00:30:28.968Z,6.65
2022-08-31T00:32:58.108Z,5.90
2022-08-31T00:35:26.608Z,9.10
2022-08-31T00:37:53.513Z,6.90
2022-08-31T00:40:20.481Z,5.85
2022-08-31T00:42:47.348Z,8.23
2022-08-31T00:45:14.354Z,6.80
2022-08-31T00:47:41.233Z,5.45
2022-08-31T00:50:11.536Z,4.75
2022-08-31T00:52:42.855Z,6.97
2022-08-31T00:55:17.859Z,5.50
2022-08-31T00:57:48.607Z,7.68
2022-08-31T01:00:20.330Z,5.80
2022-08-31T01:02:48.145Z,5.75
2022-08-31T01:05:16.849Z,5.65
2022-08-31T01:07:47.745Z,6.82
2022-08-31T01:10:17.454Z,6.15
2022-08-31T01:12:47.034Z,4.75
2022-08-31T01:15:15.588Z,8.27
2022-08-31T01:17:44.592Z,6.32
2022-08-31T01:20:23.503Z,5.53
2022-08-31T01:22:59.381Z,5.13
2022-08-31T01:25:33.472Z,6.43
2022-08-31T01:28:04.599Z,6.88
2022-08-31T01:30:31.585Z,5.32
2022-08-31T01:32:58.587Z,5.45
2022-08-31T01:35:26.156Z,5.47
2022-08-31T01:37:53.827Z,6.80
2022-08-31T01:40:20.954Z,4.80
2022-08-31T01:42:47.852Z,6.25
2022-08-31T01:45:14.830Z,7.55
2022-08-31T01:47:41.657Z,5.22
2022-08-31T01:50:09.461Z,6.40
2022-08-31T01:52:37.962Z,5.80
2022-08-31T01:55:07.096Z,6.03
2022-08-31T01:57:34.789Z,6.05
2022-08-31T02:00:09.076Z,6.30
2022-08-31T02:02:36.508Z,5.85
2022-08-31T02:05:03.830Z,9.20
2022-08-31T02:07:30.722Z,6.82
2022-08-31T02:09:57.609Z,6.55
2022-08-31T02:12:24.510Z,8.18
2022-08-31T02:14:51.643Z,5.75
2022-08-31T02:17:18.595Z,7.05
2022-08-31T02:19:45.405Z,5.45
2022-08-31T02:22:12.269Z,7.03
2022-08-31T02:24:39.190Z,6.50
2022-08-31T02:27:06.013Z,6.28
2022-08-31T02:29:32.853Z,6.47
2022-08-31T02:31:59.771Z,10.80
2022-08-31T02:34:26.564Z,5.00
2022-08-31T02:36:53.412Z,4.97
2022-08-31T02:39:20.202Z,4.97
2022-08-31T02:41:47.344Z,5.47
2022-08-31T02:44:14.616Z,6.45
2022-08-31T02:46:41.454Z,5.70
2022-08-31T02:49:08.285Z,5.70
2022-08-31T02:51:35.036Z,6.65
2022-08-31T02:54:01.925Z,6.00
2022-08-31T02:56:28.977Z,7.47
2022-08-31T02:58:55.774Z,5.43
2022-08-31T03:01:23.945Z,5.53
2022-08-31T03:03:50.874Z,5.25
2022-08-31T03:06:19.362Z,7.80
2022-08-31T03:08:47.351Z,6.65
2022-08-31T03:11:15.061Z,6.85
2022-08-31T03:13:42.205Z,5.90
2022-08-31T03:16:11.771Z,7.63
2022-08-31T03:18:38.754Z,6.57
2022-08-31T03:21:05.703Z,7.43
2022-08-31T03:23:32.499Z,9.23
2022-08-31T03:26:00.024Z,6.63
2022-08-31T03:28:27.226Z,6.15
2022-08-31T03:30:54.127Z,7.25
2022-08-31T03:33:21.005Z,7.78
2022-08-31T03:35:47.766Z,6.63
2022-08-31T03:38:16.051Z,7.78
2022-08-31T03:40:44.572Z,6.93
2022-08-31T03:43:12.245Z,5.47
2022-08-31T03:45:40.524Z,6.38
2022-08-31T03:48:12.188Z,7.32
2022-08-31T03:50:40.494Z,7.55
2022-08-31T03:53:08.457Z,6.70
2022-08-31T03:55:38.312Z,7.65
2022-08-31T03:58:05.984Z,6.65
2022-08-31T04:00:33.394Z,9.95
2022-08-31T04:03:01.582Z,7.65
2022-08-31T04:05:34.849Z,6.70
2022-08-31T04:08:01.718Z,7.38
2022-08-31T04:10:28.664Z,6.85
2022-08-31T04:12:55.663Z,7.82
2022-08-31T04:15:22.580Z,6.63
2022-08-31T04:17:49.914Z,8.63
2022-08-31T04:20:24.442Z,8.07
2022-08-31T04:22:56.925Z,7.20
2022-08-31T04:25:23.715Z,8.48
2022-08-31T04:27:50.791Z,6.70
2022-08-31T04:30:18.427Z,8.27
2022-08-31T04:32:45.252Z,14.05
2022-08-31T04:35:12.103Z,7.03
2022-08-31T04:37:46.349Z,8.00
2022-08-31T04:40:22.628Z,6.75
2022-08-31T04:42:53.142Z,7.22
2022-08-31T04:45:19.978Z,8.82
2022-08-31T04:47:46.774Z,7.30
2022-08-31T04:50:16.441Z,8.30
2022-08-31T04:52:45.011Z,7.82
2022-08-31T04:55:27.904Z,7.30
2022-08-31T04:57:57.354Z,7.65
2022-08-31T05:00:24.858Z,7.38
2022-08-31T05:02:54.060Z,7.85
2022-08-31T05:05:21.095Z,7.55
2022-08-31T05:07:47.998Z,9.05
2022-08-31T05:10:15.247Z,7.65
2022-08-31T05:12:42.027Z,8.52
2022-08-31T05:15:09.147Z,9.98
2022-08-31T05:17:36.093Z,7.45
2022-08-31T05:20:05.282Z,11.73
2022-08-31T05:22:32.134Z,9.45
2022-08-31T05:24:59.089Z,9.25
2022-08-31T05:27:25.984Z,9.73
2022-08-31T05:29:52.816Z,8.57
2022-08-31T05:32:19.604Z,7.22
2022-08-31T05:34:46.530Z,7.78
2022-08-31T05:37:13.345Z,8.32
2022-08-31T05:39:40.400Z,7.78
2022-08-31T05:42:09.944Z,7.72
2022-08-31T05:44:37.228Z,11.57
2022-08-31T05:47:06.352Z,9.30
2022-08-31T05:49:34.372Z,10.77
2022-08-31T05:52:02.159Z,8.10
2022-08-31T05:54:29.266Z,10.10
2022-08-31T05:57:01.016Z,7.57
2022-08-31T05:59:29.140Z,6.78
2022-08-31T06:01:56.191Z,7.43
2022-08-31T06:04:23.002Z,7.53
2022-08-31T06:06:49.833Z,7.95
2022-08-31T06:09:16.682Z,6.70
2022-08-31T06:11:43.630Z,6.55
2022-08-31T06:14:12.109Z,7.13
2022-08-31T06:16:39.822Z,5.68
2022-08-31T06:19:07.662Z,6.65
2022-08-31T06:21:38.625Z,8.00
2022-08-31T06:24:07.607Z,5.80
2022-08-31T06:26:35.924Z,6.88
2022-08-31T06:29:05.419Z,7.13
2022-08-31T06:31:36.115Z,6.45
2022-08-31T06:34:04.253Z,9.90
2022-08-31T06:36:32.123Z,8.10
2022-08-31T06:39:00.858Z,7.78
2022-08-31T06:41:34.341Z,6.63
2022-08-31T06:44:05.892Z,7.10
2022-08-31T06:46:34.245Z,7.35
2022-08-31T06:49:01.406Z,7.47
2022-08-31T06:51:28.541Z,7.40
2022-08-31T06:53:55.830Z,6.57
2022-08-31T06:56:25.351Z,7.00
2022-08-31T06:58:54.218Z,6.85
2022-08-31T07:01:38.098Z,7.65
2022-08-31T07:04:08.354Z,7.32
2022-08-31T07:06:45.446Z,5.25
2022-08-31T07:09:17.588Z,5.60
2022-08-31T07:11:47.169Z,7.38
2022-08-31T07:14:16.808Z,6.35
2022-08-31T07:16:44.550Z,6.70
2022-08-31T07:19:12.735Z,6.45
2022-08-31T07:21:42.864Z,6.85
2022-08-31T07:24:11.407Z,5.43
2022-08-31T07:26:44.692Z,5.85
2022-08-31T07:29:14.960Z,5.28
2022-08-31T07:31:44.799Z,5.68
2022-08-31T07:34:14.073Z,5.50
2022-08-31T07:36:59.859Z,6.85
2022-08-31T07:39:46.979Z,4.93
2022-08-31T07:42:18.126Z,5.70
2022-08-31T07:44:53.597Z,4.50
2022-08-31T07:47:22.626Z,6.22
2022-08-31T07:49:55.055Z,6.88
2022-08-31T07:52:25.230Z,7.05
2022-08-31T07:54:55.124Z,4.95
2022-08-31T07:57:25.938Z,5.70
2022-08-31T08:00:04.389Z,6.85
2022-08-31T08:02:38.323Z,5.97
2022-08-31T08:05:09.991Z,6.28
2022-08-31T08:07:38.697Z,5.40
2022-08-31T08:10:09.092Z,6.80
2022-08-31T08:12:36.847Z,6.28
2022-08-31T08:15:07.319Z,6.05
2022-08-31T08:17:34.144Z,4.95
2022-08-31T08:20:01.002Z,6.47
2022-08-31T08:22:50.845Z,6.28
2022-08-31T08:25:16.711Z,7.28
2022-08-31T08:27:44.147Z,5.20
2022-08-31T08:30:13.949Z,6.35
2022-08-31T08:32:42.550Z,5.53
2022-08-31T08:35:11.033Z,6.60
2022-08-31T08:37:57.810Z,5.90
2022-08-31T08:40:42.893Z,5.38
2022-08-31T08:43:14.670Z,6.28
2022-08-31T08:45:42.924Z,6.28
2022-08-31T08:48:13.956Z,6.75
2022-08-31T08:50:42.085Z,6.75
2022-08-31T08:53:12.702Z,6.57
2022-08-31T08:55:41.439Z,5.78
2022-08-31T08:58:13.425Z,4.70
2022-08-31T09:00:46.680Z,4.75
2022-08-31T09:03:25.697Z,5.53
2022-08-31T09:06:13.554Z,4.20
2022-08-31T09:11:49.850Z,5.53
2022-08-31T09:14:31.927Z,7.45
2022-08-31T09:17:16.247Z,5.57
2022-08-31T09:20:04.238Z,6.40
2022-08-31T09:22:35.307Z,6.18
2022-08-31T09:25:03.705Z,7.35
2022-08-31T09:27:46.672Z,6.93
2022-08-31T09:30:41.060Z,7.65
2022-08-31T09:33:23.656Z,4.80
2022-08-31T09:35:56.882Z,13.27
2022-08-31T09:38:30.485Z,5.05
2022-08-31T09:40:58.312Z,6.20
2022-08-31T09:43:38.701Z,9.38
2022-08-31T09:46:11.776Z,9.15
2022-08-31T09:48:52.454Z,6.65
2022-08-31T09:51:24.581Z,8.40
2022-08-31T09:54:11.029Z,5.20
2022-08-31T09:56:57.630Z,5.40
2022-08-31T09:59:30.478Z,6.53
2022-08-31T10:02:00.156Z,4.30
2022-08-31T10:04:32.417Z,3.78
2022-08-31T10:07:25.005Z,4.88
2022-08-31T10:10:24.311Z,4.20
2022-08-31T10:13:27.550Z,6.35
2022-08-31T10:16:02.336Z,4.00
2022-08-31T10:19:01.354Z,4.50
2022-08-31T10:21:44.172Z,5.47
2022-08-31T10:24:44.883Z,3.85
2022-08-31T10:27:32.323Z,4.90
2022-08-31T10:30:19.925Z,4.07
2022-08-31T10:33:18.007Z,4.95
2022-08-31T10:35:55.190Z,3.72
2022-08-31T10:38:34.590Z,3.83
2022-08-31T10:41:05.963Z,3.65
2022-08-31T10:43:45.991Z,5.22
2022-08-31T10:46:15.759Z,3.40
2022-08-31T10:48:47.356Z,4.00
2022-08-31T10:51:23.004Z,4.47
2022-08-31T10:54:12.257Z,4.50
2022-08-31T10:56:59.204Z,3.47
2022-08-31T10:59:35.746Z,4.95
2022-08-31T11:02:14.387Z,4.10
2022-08-31T11:05:06.095Z,3.83
2022-08-31T11:07:46.292Z,3.17
2022-08-31T11:10:26.258Z,5.07
2022-08-31T11:13:00.988Z,3.42
2022-08-31T11:15:28.935Z,4.20
2022-08-31T11:18:43.482Z,3.20
2022-08-31T11:21:35.316Z,4.00
2022-08-31T11:24:41.206Z,2.30
2022-08-31T11:27:19.126Z,2.60
2022-08-31T11:29:53.243Z,4.15
2022-08-31T11:32:23.680Z,2.28
2022-08-31T11:34:54.007Z,2.42
2022-08-31T11:37:52.566Z,2.60
2022-08-31T11:40:46.631Z,2.50
2022-08-31T11:43:31.670Z,3.33
2022-08-31T11:46:24.054Z,2.00
2022-08-31T11:48:54.568Z,2.33
2022-08-31T11:51:36.065Z,2.40
2022-08-31T11:56:41.236Z,2.08
2022-08-31T11:59:32.576Z,4.15
2022-08-31T12:02:19.420Z,2.08
2022-08-31T12:04:47.401Z,1.80
2022-08-31T12:07:28.499Z,2.45
2022-08-31T12:10:26.767Z,1.60
2022-08-31T12:13:19.606Z,1.95
2022-08-31T12:16:05.199Z,4.72
2022-08-31T12:18:55.390Z,1.58
2022-08-31T12:21:48.285Z,2.15
2022-08-31T12:24:27.362Z,2.53
2022-08-31T12:27:17.621Z,2.45
2022-08-31T12:29:45.502Z,1.85
2022-08-31T12:32:20.452Z,1.48
2022-08-31T12:34:56.329Z,2.92
2022-08-31T12:37:32.866Z,1.73
2022-08-31T12:40:08.938Z,2.33
2022-08-31T12:42:41.200Z,2.15
2022-08-31T12:45:10.722Z,1.73
2022-08-31T12:48:01.775Z,2.00
2022-08-31T12:50:33.219Z,2.63
2022-08-31T12:53:24.752Z,4.18
2022-08-31T12:56:20.042Z,1.85
2022-08-31T12:59:05.483Z,2.63
2022-08-31T13:01:32.837Z,2.40
2022-08-31T13:04:03.411Z,2.20
2022-08-31T13:06:35.101Z,2.83
2022-08-31T13:09:03.565Z,2.00
2022-08-31T13:11:40.988Z,2.05
2022-08-31T13:14:20.010Z,2.40
2022-08-31T13:16:50.624Z,5.13
2022-08-31T13:19:24.089Z,3.05
2022-08-31T13:21:55.255Z,2.65
2022-08-31T13:24:31.052Z,4.13
2022-08-31T13:27:13.009Z,2.20
2022-08-31T13:29:46.759Z,2.20
2022-08-31T13:32:29.763Z,2.58
2022-08-31T13:34:57.552Z,2.10
2022-08-31T13:37:32.016Z,4.78
2022-08-31T13:40:12.222Z,2.80
2022-08-31T13:42:43.243Z,2.13
2022-08-31T13:45:57.871Z,2.28
2022-08-31T13:48:35.510Z,3.15
2022-08-31T13:51:13.518Z,3.15
2022-08-31T13:53:46.800Z,1.88
2022-08-31T13:56:55.731Z,4.47
2022-08-31T13:59:23.641Z,3.10
2022-08-31T14:02:00.060Z,3.45
2022-08-31T14:04:43.899Z,4.13
2022-08-31T14:07:32.669Z,2.95
2022-08-31T14:10:19.513Z,7.32
2022-08-31T14:13:18.300Z,3.55
2022-08-31T14:15:56.271Z,2.10
2022-08-31T14:18:40.646Z,2.50
2022-08-31T14:21:24.128Z,2.55
2022-08-31T14:23:54.985Z,3.95
2022-08-31T14:26:26.529Z,4.20
2022-08-31T14:29:00.352Z,2.67
2022-08-31T14:31:42.912Z,3.85
2022-08-31T14:34:20.106Z,3.20
2022-08-31T14:36:55.898Z,2.70
2022-08-31T14:39:24.824Z,2.80
2022-08-31T14:41:54.840Z,3.70
2022-08-31T14:44:28.143Z,2.45
2022-08-31T14:46:54.997Z,2.65
2022-08-31T14:49:23.156Z,6.47
2022-08-31T14:51:49.959Z,3.10
2022-08-31T14:54:17.119Z,2.75
2022-08-31T14:56:50.313Z,2.95
2022-08-31T14:59:21.750Z,3.67
2022-08-31T15:01:50.610Z,2.55
2022-08-31T15:04:20.680Z,3.35
2022-08-31T15:06:50.316Z,2.85
2022-08-31T15:09:17.368Z,2.83
2022-08-31T15:11:45.221Z,2.50
2022-08-31T15:14:14.760Z,2.60
2022-08-31T15:16:47.559Z,2.63
2022-08-31T15:19:15.326Z,2.72
2022-08-31T15:21:58.678Z,2.65
2022-08-31T15:24:30.189Z,3.05
2022-08-31T15:26:58.444Z,2.40
2022-08-31T15:29:25.785Z,3.35
2022-08-31T15:31:55.050Z,2.60
2022-08-31T15:34:26.786Z,2.95
2022-08-31T15:36:56.115Z,3.25
2022-08-31T15:39:28.397Z,3.03
2022-08-31T15:41:55.278Z,3.13
2022-08-31T15:44:23.383Z,2.30
2022-08-31T15:47:08.783Z,3.17
2022-08-31T15:49:37.824Z,2.40
2022-08-31T15:52:07.133Z,2.35
2022-08-31T15:54:35.881Z,3.75
2022-08-31T15:57:08.024Z,2.97
2022-08-31T15:59:38.830Z,3.70
2022-08-31T16:02:07.006Z,2.70
2022-08-31T16:04:38.390Z,2.83
2022-08-31T16:07:09.214Z,2.92
2022-08-31T16:09:40.831Z,3.00
2022-08-31T16:12:12.029Z,2.50
2022-08-31T16:14:41.611Z,3.20
2022-08-31T16:17:09.530Z,2.95
2022-08-31T16:19:37.176Z,3.00
2022-08-31T16:22:06.315Z,3.00
2022-08-31T16:24:37.482Z,3.08
2022-08-31T16:27:11.495Z,4.22
2022-08-31T16:29:39.119Z,4.40
2022-08-31T16:32:08.438Z,3.47
2022-08-31T16:34:39.207Z,3.22
2022-08-31T16:37:07.805Z,4.05
2022-08-31T16:39:42.992Z,3.50
2022-08-31T16:42:12.381Z,3.25
2022-08-31T16:44:41.067Z,4.13
2022-08-31T16:47:09.536Z,3.58
2022-08-31T16:49:36.782Z,4.38
2022-08-31T16:52:06.714Z,4.40
2022-08-31T16:54:34.502Z,4.28
2022-08-31T16:57:01.757Z,4.20
2022-08-31T16:59:29.512Z,3.03
2022-08-31T17:01:56.933Z,3.65
2022-08-31T17:04:50.332Z,4.60
2022-08-31T17:07:14.762Z,3.70
2022-08-31T17:09:42.533Z,3.65
2022-08-31T17:12:14.372Z,3.78
2022-08-31T17:14:48.407Z,3.47
2022-08-31T17:17:19.036Z,4.13
2022-08-31T17:19:46.580Z,3.53
2022-08-31T17:22:23.478Z,5.43
2022-08-31T17:24:56.406Z,4.35
2022-08-31T17:27:24.201Z,4.40
2022-08-31T17:29:52.644Z,3.78
2022-08-31T17:32:22.468Z,4.03
2022-08-31T17:34:51.701Z,4.75
2022-08-31T17:37:26.447Z,4.00
2022-08-31T17:39:54.896Z,3.70
2022-08-31T17:42:23.146Z,4.18
2022-08-31T17:44:52.164Z,3.60
2022-08-31T17:47:20.205Z,3.50
2022-08-31T17:49:47.235Z,3.28
2022-08-31T17:52:14.467Z,5.30
2022-08-31T17:54:43.312Z,4.95
2022-08-31T17:57:15.423Z,2.92
2022-08-31T17:59:49.270Z,3.85
2022-08-31T18:04:44.544Z,3.92
2022-08-31T18:07:12.171Z,4.25
2022-08-31T18:09:41.937Z,4.72
2022-08-31T18:12:09.855Z,5.75
2022-08-31T18:14:38.203Z,4.60
2022-08-31T18:17:10.944Z,3.92
2022-08-31T18:19:38.271Z,4.75
2022-08-31T18:22:05.864Z,4.05
2022-08-31T18:24:35.566Z,4.78
2022-08-31T18:27:07.421Z,4.10
2022-08-31T18:29:37.512Z,3.90
2022-08-31T18:32:06.530Z,3.55
2022-08-31T18:34:37.023Z,5.72
2022-08-31T18:37:04.731Z,3.95
2022-08-31T18:39:52.753Z,3.10
2022-08-31T18:42:39.744Z,4.78
2022-08-31T18:45:18.191Z,4.75
2022-08-31T18:50:44.273Z,4.88
2022-08-31T18:53:15.394Z,3.28
2022-08-31T18:55:43.908Z,5.57
2022-08-31T18:58:10.856Z,3.28
2022-08-31T19:00:38.198Z,4.50
2022-08-31T19:03:05.845Z,4.00
2022-08-31T19:05:33.233Z,3.10
2022-08-31T19:08:00.499Z,3.45
2022-08-31T19:10:27.858Z,5.10
2022-08-31T19:12:57.346Z,3.72
2022-08-31T19:15:33.608Z,6.75
2022-08-31T19:18:05.379Z,3.40
2022-08-31T19:20:33.469Z,4.38
2022-08-31T19:23:00.807Z,3.88
2022-08-31T19:25:27.845Z,4.35
2022-08-31T19:27:54.881Z,4.18
2022-08-31T19:30:27.215Z,4.32
2022-08-31T19:32:56.245Z,5.32
2022-08-31T19:35:25.860Z,5.53
2022-08-31T19:37:53.759Z,4.53
2022-08-31T19:40:20.743Z,6.18
2022-08-31T19:45:43.783Z,6.50
2022-08-31T19:48:12.808Z,4.25
2022-08-31T19:50:42.114Z,5.05
2022-08-31T19:53:13.493Z,4.85
2022-08-31T19:55:50.285Z,4.85
2022-08-31T19:58:18.938Z,5.47
2022-08-31T20:00:48.035Z,5.47
2022-08-31T20:03:16.050Z,4.80
2022-08-31T20:05:43.461Z,6.90
2022-08-31T20:08:12.250Z,5.57
2022-08-31T20:10:41.209Z,7.15
2022-08-31T20:13:10.006Z,5.82
2022-08-31T20:15:42.744Z,5.22
2022-08-31T20:18:11.357Z,8.05
2022-08-31T20:20:45.292Z,6.32
2022-08-31T20:25:40.493Z,5.80
2022-08-31T20:28:07.504Z,5.90
2022-08-31T20:30:41.836Z,6.18
2022-08-31T20:33:09.680Z,7.40
2022-08-31T20:35:41.501Z,5.93
2022-08-31T20:38:13.297Z,6.65
2022-08-31T20:40:42.091Z,5.43
2022-08-31T20:43:11.640Z,7.03
2022-08-31T20:45:39.918Z,5.00
2022-08-31T20:48:26.432Z,7.40
2022-08-31T20:50:53.316Z,6.93
2022-08-31T20:53:42.180Z,6.03
2022-08-31T20:56:08.039Z,5.68
2022-08-31T20:58:35.229Z,6.13
2022-08-31T21:01:06.980Z,5.65
2022-08-31T21:03:34.623Z,5.95
2022-08-31T21:06:11.615Z,5.25
2022-08-31T21:08:41.183Z,6.47
2022-08-31T21:11:14.993Z,6.80
2022-08-31T21:13:42.895Z,5.97
2022-08-31T21:16:10.727Z,6.55
2022-08-31T21:18:38.823Z,6.32
2022-08-31T21:21:08.170Z,6.75
2022-08-31T21:23:36.963Z,7.30
2022-08-31T21:26:05.060Z,5.85
2022-08-31T21:28:31.929Z,8.40
2022-08-31T21:31:18.641Z,6.10
2022-08-31T21:34:00.810Z,7.60
2022-08-31T21:36:29.568Z,7.75
2022-08-31T21:39:00.014Z,8.35
2022-08-31T21:41:28.768Z,7.07
2022-08-31T21:43:57.204Z,6.38
2022-08-31T21:46:26.788Z,5.85
2022-08-31T21:48:56.060Z,5.68
2022-08-31T21:51:26.650Z,6.72
2022-08-31T21:53:57.256Z,7.97
2022-08-31T21:56:25.922Z,7.90
2022-08-31T21:58:53.268Z,7.05
2022-08-31T22:01:20.502Z,10.43
2022-08-31T22:03:53.932Z,7.50
2022-08-31T22:06:27.422Z,6.60
2022-08-31T22:09:00.306Z,7.60
2022-08-31T22:11:30.683Z,7.73
2022-08-31T22:13:59.223Z,7.35
2022-08-31T22:16:26.373Z,6.18
2022-08-31T22:19:01.652Z,6.40
2022-08-31T22:21:32.212Z,6.05
2022-08-31T22:24:03.010Z,7.93
2022-08-31T22:26:34.517Z,7.57
2022-08-31T22:29:01.516Z,7.38
2022-08-31T22:31:28.514Z,7.85
2022-08-31T22:33:55.490Z,6.88
2022-08-31T22:36:32.788Z,7.07
2022-08-31T22:39:06.964Z,6.03
2022-08-31T22:41:35.647Z,6.53
2022-08-31T22:44:02.907Z,6.45
2022-08-31T22:46:29.766Z,7.18
2022-08-31T22:48:57.684Z,7.35
2022-08-31T22:51:24.686Z,7.45
2022-08-31T22:53:51.857Z,7.35
2022-08-31T22:56:22.034Z,7.47
2022-08-31T22:58:49.688Z,8.30
2022-08-31T23:01:26.800Z,7.05
2022-08-31T23:03:57.092Z,8.82
2022-08-31T23:06:26.010Z,7.88
2022-08-31T23:08:55.546Z,7.90
2022-08-31T23:11:24.841Z,6.78
2022-08-31T23:13:57.470Z,8.90
2022-08-31T23:17:01.122Z,7.30
2022-08-31T23:19:33.387Z,9.45
2022-08-31T23:22:00.942Z,8.48
2022-08-31T23:24:42.070Z,7.30
2022-08-31T23:27:10.242Z,8.57
2022-08-31T23:29:40.813Z,7.63
2022-08-31T23:32:12.154Z,7.80
2022-08-31T23:34:41.785Z,7.22
2022-08-31T23:37:10.645Z,8.93
2022-08-31T23:39:40.705Z,9.45
2022-08-31T23:42:12.225Z,9.07
2022-08-31T23:44:42.670Z,7.80
2022-08-31T23:47:17.012Z,8.48
2022-08-31T23:49:44.651Z,8.23
2022-08-31T23:52:12.208Z,7.40
2022-08-31T23:54:39.579Z,9.88
2022-08-31T23:57:08.530Z,8.00
2022-08-31T23:59:53.198Z,8.25
